sensor_id;sensor_type;location;lat;lon;timestamp;P1;durP1;ratioP1;P2;durP2;ratioP2
32746;SDS011;19118;50.860;13.662;2022-11-15T00:04:24;100.78;;;33.85;;
32746;SDS011;19118;50.860;13.662;2022-11-15T00:09:43;91.23;;;35.80;;
32746;SDS011;19118;50.860;13.662;2022-11-15T00:15:02;84.47;;;34.13;;
32746;SDS011;19118;50.860;13.662;2022-11-15T00:20:21;94.97;;;34.03;;
32746;SDS011;19118;50.860;13.662;2022-11-15T00:25:40;121.75;;;40.83;;
32746;SDS011;19118;50.860;13.662;2022-11-15T00:31:03;154.80;;;43.28;;
32746;SDS011;19118;50.860;13.662;2022-11-15T00:36:23;128.43;;;38.05;;
32746;SDS011;19118;50.860;13.662;2022-11-15T00:41:42;121.55;;;38.60;;
32746;SDS011;19118;50.860;13.662;2022-11-15T00:47:01;95.95;;;34.17;;
32746;SDS011;19118;50.860;13.662;2022-11-15T00:52:20;85.60;;;30.60;;
32746;SDS011;19118;50.860;13.662;2022-11-15T00:57:39;78.37;;;28.43;;
32746;SDS011;19118;50.860;13.662;2022-11-15T01:02:58;86.55;;;29.08;;
32746;SDS011;19118;50.860;13.662;2022-11-15T01:13:37;79.75;;;25.02;;
32746;SDS011;19118;50.860;13.662;2022-11-15T01:18:57;76.97;;;24.40;;
32746;SDS011;19118;50.860;13.662;2022-11-15T01:24:16;68.93;;;25.42;;
32746;SDS011;19118;50.860;13.662;2022-11-15T01:29:35;76.28;;;26.63;;
32746;SDS011;19118;50.860;13.662;2022-11-15T01:34:54;75.55;;;26.65;;
32746;SDS011;19118;50.860;13.662;2022-11-15T01:40:12;67.93;;;24.45;;
32746;SDS011;19118;50.860;13.662;2022-11-15T01:45:33;71.55;;;25.10;;
32746;SDS011;19118;50.860;13.662;2022-11-15T01:50:52;64.25;;;25.02;;
32746;SDS011;19118;50.860;13.662;2022-11-15T01:56:12;64.50;;;22.80;;
32746;SDS011;19118;50.860;13.662;2022-11-15T02:01:35;63.28;;;23.88;;
32746;SDS011;19118;50.860;13.662;2022-11-15T02:06:54;68.80;;;25.40;;
32746;SDS011;19118;50.860;13.662;2022-11-15T02:12:14;74.22;;;28.15;;
32746;SDS011;19118;50.860;13.662;2022-11-15T02:17:43;85.00;;;29.67;;
32746;SDS011;19118;50.860;13.662;2022-11-15T02:28:49;74.40;;;26.83;;
32746;SDS011;19118;50.860;13.662;2022-11-15T02:34:26;57.35;;;24.05;;
32746;SDS011;19118;50.860;13.662;2022-11-15T02:45:33;58.88;;;20.08;;
32746;SDS011;19118;50.860;13.662;2022-11-15T02:56:25;57.90;;;18.92;;
32746;SDS011;19118;50.860;13.662;2022-11-15T03:07:16;59.70;;;19.88;;
32746;SDS011;19118;50.860;13.662;2022-11-15T03:12:43;51.05;;;18.83;;
32746;SDS011;19118;50.860;13.662;2022-11-15T03:18:12;64.20;;;25.80;;
32746;SDS011;19118;50.860;13.662;2022-11-15T03:23:40;121.40;;;42.35;;
32746;SDS011;19118;50.860;13.662;2022-11-15T03:29:01;71.95;;;27.58;;
32746;SDS011;19118;50.860;13.662;2022-11-15T03:34:44;85.53;;;29.63;;
32746;SDS011;19118;50.860;13.662;2022-11-15T03:40:05;60.30;;;23.65;;
32746;SDS011;19118;50.860;13.662;2022-11-15T03:50:51;39.85;;;14.60;;
32746;SDS011;19118;50.860;13.662;2022-11-15T03:56:12;37.75;;;14.25;;
32746;SDS011;19118;50.860;13.662;2022-11-15T04:01:31;28.97;;;12.83;;
32746;SDS011;19118;50.860;13.662;2022-11-15T04:06:50;28.17;;;12.07;;
32746;SDS011;19118;50.860;13.662;2022-11-15T04:12:09;39.95;;;12.18;;
32746;SDS011;19118;50.860;13.662;2022-11-15T04:17:28;29.27;;;11.75;;
32746;SDS011;19118;50.860;13.662;2022-11-15T04:22:47;25.87;;;10.67;;
32746;SDS011;19118;50.860;13.662;2022-11-15T04:28:25;25.20;;;9.05;;
32746;SDS011;19118;50.860;13.662;2022-11-15T04:33:44;24.17;;;9.60;;
32746;SDS011;19118;50.860;13.662;2022-11-15T04:39:03;31.30;;;10.30;;
32746;SDS011;19118;50.860;13.662;2022-11-15T04:44:22;24.85;;;10.35;;
32746;SDS011;19118;50.860;13.662;2022-11-15T04:49:41;25.05;;;9.43;;
32746;SDS011;19118;50.860;13.662;2022-11-15T04:55:00;23.83;;;9.00;;
32746;SDS011;19118;50.860;13.662;2022-11-15T05:00:19;19.05;;;8.15;;
32746;SDS011;19118;50.860;13.662;2022-11-15T05:05:38;28.90;;;10.02;;
32746;SDS011;19118;50.860;13.662;2022-11-15T05:10:56;33.95;;;12.23;;
32746;SDS011;19118;50.860;13.662;2022-11-15T05:16:15;32.37;;;10.77;;
32746;SDS011;19118;50.860;13.662;2022-11-15T05:21:34;28.08;;;10.60;;
32746;SDS011;19118;50.860;13.662;2022-11-15T05:26:54;27.95;;;11.18;;
32746;SDS011;19118;50.860;13.662;2022-11-15T05:32:13;30.75;;;10.85;;
32746;SDS011;19118;50.860;13.662;2022-11-15T05:37:32;27.13;;;11.23;;
32746;SDS011;19118;50.860;13.662;2022-11-15T05:42:51;36.08;;;11.80;;
32746;SDS011;19118;50.860;13.662;2022-11-15T05:48:10;32.55;;;13.15;;
32746;SDS011;19118;50.860;13.662;2022-11-15T05:58:49;44.35;;;12.90;;
32746;SDS011;19118;50.860;13.662;2022-11-15T06:04:08;35.57;;;11.83;;
32746;SDS011;19118;50.860;13.662;2022-11-15T06:09:27;35.35;;;12.63;;
32746;SDS011;19118;50.860;13.662;2022-11-15T06:14:46;28.10;;;12.43;;
32746;SDS011;19118;50.860;13.662;2022-11-15T06:20:05;30.80;;;12.52;;
32746;SDS011;19118;50.860;13.662;2022-11-15T06:25:25;41.22;;;12.32;;
32746;SDS011;19118;50.860;13.662;2022-11-15T06:36:04;31.95;;;9.88;;
32746;SDS011;19118;50.860;13.662;2022-11-15T06:41:24;36.67;;;13.07;;
32746;SDS011;19118;50.860;13.662;2022-11-15T06:46:43;26.43;;;9.50;;
32746;SDS011;19118;50.860;13.662;2022-11-15T06:52:02;28.10;;;12.37;;
32746;SDS011;19118;50.860;13.662;2022-11-15T06:57:21;30.13;;;11.47;;
32746;SDS011;19118;50.860;13.662;2022-11-15T07:02:40;22.73;;;10.07;;
32746;SDS011;19118;50.860;13.662;2022-11-15T07:07:59;28.35;;;11.13;;
32746;SDS011;19118;50.860;13.662;2022-11-15T07:13:19;29.90;;;12.57;;
32746;SDS011;19118;50.860;13.662;2022-11-15T07:18:38;29.43;;;10.90;;
32746;SDS011;19118;50.860;13.662;2022-11-15T07:23:58;30.45;;;10.50;;
32746;SDS011;19118;50.860;13.662;2022-11-15T07:29:17;43.00;;;11.90;;
32746;SDS011;19118;50.860;13.662;2022-11-15T07:34:36;30.23;;;11.65;;
32746;SDS011;19118;50.860;13.662;2022-11-15T07:39:55;31.00;;;11.68;;
32746;SDS011;19118;50.860;13.662;2022-11-15T07:50:34;27.50;;;12.70;;
32746;SDS011;19118;50.860;13.662;2022-11-15T07:55:53;32.58;;;12.90;;
32746;SDS011;19118;50.860;13.662;2022-11-15T08:01:12;34.72;;;13.48;;
32746;SDS011;19118;50.860;13.662;2022-11-15T08:06:32;45.17;;;15.18;;
32746;SDS011;19118;50.860;13.662;2022-11-15T08:11:50;36.30;;;14.63;;
32746;SDS011;19118;50.860;13.662;2022-11-15T08:17:09;41.90;;;16.50;;
32746;SDS011;19118;50.860;13.662;2022-11-15T08:22:28;52.30;;;19.17;;
32746;SDS011;19118;50.860;13.662;2022-11-15T08:27:47;46.93;;;20.47;;
32746;SDS011;19118;50.860;13.662;2022-11-15T08:33:11;47.42;;;17.83;;
32746;SDS011;19118;50.860;13.662;2022-11-15T08:38:31;43.47;;;18.02;;
32746;SDS011;19118;50.860;13.662;2022-11-15T08:43:51;54.15;;;19.73;;
32746;SDS011;19118;50.860;13.662;2022-11-15T08:49:10;44.03;;;17.63;;
32746;SDS011;19118;50.860;13.662;2022-11-15T08:54:29;36.00;;;17.67;;
32746;SDS011;19118;50.860;13.662;2022-11-15T08:59:47;39.28;;;15.30;;
32746;SDS011;19118;50.860;13.662;2022-11-15T09:05:07;20.73;;;7.23;;
32746;SDS011;19118;50.860;13.662;2022-11-15T09:10:26;13.48;;;6.35;;
32746;SDS011;19118;50.860;13.662;2022-11-15T09:15:45;16.90;;;5.40;;
32746;SDS011;19118;50.860;13.662;2022-11-15T09:21:04;10.18;;;4.22;;
32746;SDS011;19118;50.860;13.662;2022-11-15T09:26:23;15.23;;;4.57;;
32746;SDS011;19118;50.860;13.662;2022-11-15T09:31:42;16.90;;;3.57;;
32746;SDS011;19118;50.860;13.662;2022-11-15T09:37:01;9.40;;;2.78;;
32746;SDS011;19118;50.860;13.662;2022-11-15T09:53:41;11.63;;;2.88;;
32746;SDS011;19118;50.860;13.662;2022-11-15T10:09:22;4.90;;;2.50;;
32746;SDS011;19118;50.860;13.662;2022-11-15T10:14:24;5.10;;;2.95;;
32746;SDS011;19118;50.860;13.662;2022-11-15T10:24:46;7.68;;;2.60;;
32746;SDS011;19118;50.860;13.662;2022-11-15T10:29:48;9.90;;;2.28;;
32746;SDS011;19118;50.860;13.662;2022-11-15T10:34:50;5.18;;;2.40;;
32746;SDS011;19118;50.860;13.662;2022-11-15T10:40:14;5.40;;;1.73;;
32746;SDS011;19118;50.860;13.662;2022-11-15T10:45:25;3.28;;;1.90;;
32746;SDS011;19118;50.860;13.662;2022-11-15T10:50:31;6.82;;;1.85;;
32746;SDS011;19118;50.860;13.662;2022-11-15T10:55:32;5.07;;;2.03;;
32746;SDS011;19118;50.860;13.662;2022-11-15T11:00:37;3.72;;;1.77;;
32746;SDS011;19118;50.860;13.662;2022-11-15T11:05:41;7.60;;;4.55;;
32746;SDS011;19118;50.860;13.662;2022-11-15T11:10:52;10.75;;;5.32;;
32746;SDS011;19118;50.860;13.662;2022-11-15T11:21:09;7.18;;;4.18;;
32746;SDS011;19118;50.860;13.662;2022-11-15T11:36:47;12.07;;;7.70;;
32746;SDS011;19118;50.860;13.662;2022-11-15T11:47:15;19.95;;;12.02;;
32746;SDS011;19118;50.860;13.662;2022-11-15T11:52:20;20.67;;;11.27;;
32746;SDS011;19118;50.860;13.662;2022-11-15T12:08:25;25.80;;;15.63;;
32746;SDS011;19118;50.860;13.662;2022-11-15T12:13:32;20.50;;;12.43;;
32746;SDS011;19118;50.860;13.662;2022-11-15T12:18:36;20.85;;;12.27;;
32746;SDS011;19118;50.860;13.662;2022-11-15T12:23:39;22.85;;;12.50;;
32746;SDS011;19118;50.860;13.662;2022-11-15T12:33:57;25.30;;;13.23;;
32746;SDS011;19118;50.860;13.662;2022-11-15T12:39:05;21.17;;;12.20;;
32746;SDS011;19118;50.860;13.662;2022-11-15T13:09:54;23.75;;;13.35;;
32746;SDS011;19118;50.860;13.662;2022-11-15T13:14:59;19.40;;;12.60;;
32746;SDS011;19118;50.860;13.662;2022-11-15T13:30:33;31.13;;;15.55;;
32746;SDS011;19118;50.860;13.662;2022-11-15T13:35:34;26.85;;;13.95;;
32746;SDS011;19118;50.860;13.662;2022-11-15T13:40:42;26.83;;;16.02;;
32746;SDS011;19118;50.860;13.662;2022-11-15T13:45:42;25.08;;;15.20;;
32746;SDS011;19118;50.860;13.662;2022-11-15T13:50:43;25.08;;;14.80;;
32746;SDS011;19118;50.860;13.662;2022-11-15T13:55:44;31.30;;;16.45;;
32746;SDS011;19118;50.860;13.662;2022-11-15T14:00:45;26.88;;;14.43;;
32746;SDS011;19118;50.860;13.662;2022-11-15T14:11:15;24.08;;;14.10;;
32746;SDS011;19118;50.860;13.662;2022-11-15T14:16:18;27.17;;;13.90;;
32746;SDS011;19118;50.860;13.662;2022-11-15T14:21:21;28.83;;;15.43;;
32746;SDS011;19118;50.860;13.662;2022-11-15T14:26:26;27.35;;;15.18;;
32746;SDS011;19118;50.860;13.662;2022-11-15T14:31:28;31.20;;;16.63;;
32746;SDS011;19118;50.860;13.662;2022-11-15T14:36:28;26.45;;;13.88;;
32746;SDS011;19118;50.860;13.662;2022-11-15T14:41:29;24.58;;;14.48;;
32746;SDS011;19118;50.860;13.662;2022-11-15T14:46:32;29.05;;;15.93;;
32746;SDS011;19118;50.860;13.662;2022-11-15T14:51:33;31.67;;;16.05;;
32746;SDS011;19118;50.860;13.662;2022-11-15T14:56:33;32.75;;;16.77;;
32746;SDS011;19118;50.860;13.662;2022-11-15T15:01:34;30.60;;;15.88;;
32746;SDS011;19118;50.860;13.662;2022-11-15T15:06:34;30.63;;;17.45;;
32746;SDS011;19118;50.860;13.662;2022-11-15T15:11:34;32.60;;;18.55;;
32746;SDS011;19118;50.860;13.662;2022-11-15T15:16:35;43.10;;;22.65;;
32746;SDS011;19118;50.860;13.662;2022-11-15T15:21:35;33.60;;;18.52;;
32746;SDS011;19118;50.860;13.662;2022-11-15T15:26:35;37.55;;;17.70;;
32746;SDS011;19118;50.860;13.662;2022-11-15T15:31:38;37.58;;;18.35;;
32746;SDS011;19118;50.860;13.662;2022-11-15T15:36:38;33.67;;;15.88;;
32746;SDS011;19118;50.860;13.662;2022-11-15T15:41:38;38.15;;;16.50;;
32746;SDS011;19118;50.860;13.662;2022-11-15T15:46:39;31.17;;;16.13;;
32746;SDS011;19118;50.860;13.662;2022-11-15T15:51:39;32.13;;;17.73;;
32746;SDS011;19118;50.860;13.662;2022-11-15T15:56:40;35.83;;;18.10;;
32746;SDS011;19118;50.860;13.662;2022-11-15T16:01:40;36.83;;;20.13;;
32746;SDS011;19118;50.860;13.662;2022-11-15T16:06:41;33.65;;;17.52;;
32746;SDS011;19118;50.860;13.662;2022-11-15T16:11:45;43.92;;;20.13;;
32746;SDS011;19118;50.860;13.662;2022-11-15T16:16:46;169.18;;;70.95;;
32746;SDS011;19118;50.860;13.662;2022-11-15T16:21:46;143.85;;;61.35;;
32746;SDS011;19118;50.860;13.662;2022-11-15T16:26:47;50.17;;;26.52;;
32746;SDS011;19118;50.860;13.662;2022-11-15T16:31:48;42.83;;;20.50;;
32746;SDS011;19118;50.860;13.662;2022-11-15T16:36:49;49.92;;;25.65;;
32746;SDS011;19118;50.860;13.662;2022-11-15T16:41:51;39.47;;;21.13;;
32746;SDS011;19118;50.860;13.662;2022-11-15T16:46:51;35.15;;;17.95;;
32746;SDS011;19118;50.860;13.662;2022-11-15T16:51:52;38.22;;;18.88;;
32746;SDS011;19118;50.860;13.662;2022-11-15T16:56:52;43.28;;;19.55;;
32746;SDS011;19118;50.860;13.662;2022-11-15T17:01:53;153.30;;;74.07;;
32746;SDS011;19118;50.860;13.662;2022-11-15T17:06:53;188.25;;;88.55;;
32746;SDS011;19118;50.860;13.662;2022-11-15T17:11:53;103.75;;;52.55;;
32746;SDS011;19118;50.860;13.662;2022-11-15T17:16:54;121.47;;;62.80;;
32746;SDS011;19118;50.860;13.662;2022-11-15T17:21:54;95.78;;;47.30;;
32746;SDS011;19118;50.860;13.662;2022-11-15T17:26:55;82.07;;;38.25;;
32746;SDS011;19118;50.860;13.662;2022-11-15T17:31:55;111.35;;;53.15;;
32746;SDS011;19118;50.860;13.662;2022-11-15T17:36:56;98.97;;;49.08;;
32746;SDS011;19118;50.860;13.662;2022-11-15T17:41:56;87.03;;;42.33;;
32746;SDS011;19118;50.860;13.662;2022-11-15T17:46:56;74.13;;;34.30;;
32746;SDS011;19118;50.860;13.662;2022-11-15T17:51:57;90.53;;;43.90;;
32746;SDS011;19118;50.860;13.662;2022-11-15T17:56:57;115.28;;;58.42;;
32746;SDS011;19118;50.860;13.662;2022-11-15T18:01:58;46.97;;;24.63;;
32746;SDS011;19118;50.860;13.662;2022-11-15T18:06:58;33.03;;;16.13;;
32746;SDS011;19118;50.860;13.662;2022-11-15T18:11:59;17.27;;;9.52;;
32746;SDS011;19118;50.860;13.662;2022-11-15T18:16:59;20.17;;;9.95;;
32746;SDS011;19118;50.860;13.662;2022-11-15T18:21:59;14.07;;;7.68;;
32746;SDS011;19118;50.860;13.662;2022-11-15T18:27:01;13.32;;;7.25;;
32746;SDS011;19118;50.860;13.662;2022-11-15T18:32:05;17.80;;;7.28;;
32746;SDS011;19118;50.860;13.662;2022-11-15T18:37:11;11.23;;;5.90;;
32746;SDS011;19118;50.860;13.662;2022-11-15T18:42:11;14.88;;;6.95;;
32746;SDS011;19118;50.860;13.662;2022-11-15T18:47:12;12.32;;;6.63;;
32746;SDS011;19118;50.860;13.662;2022-11-15T18:52:12;17.15;;;7.53;;
32746;SDS011;19118;50.860;13.662;2022-11-15T18:57:13;17.40;;;7.65;;
32746;SDS011;19118;50.860;13.662;2022-11-15T19:02:13;16.38;;;9.80;;
32746;SDS011;19118;50.860;13.662;2022-11-15T19:07:13;23.83;;;11.85;;
32746;SDS011;19118;50.860;13.662;2022-11-15T19:12:14;26.92;;;11.05;;
32746;SDS011;19118;50.860;13.662;2022-11-15T19:17:14;17.88;;;10.38;;
32746;SDS011;19118;50.860;13.662;2022-11-15T19:22:15;23.20;;;8.80;;
32746;SDS011;19118;50.860;13.662;2022-11-15T19:27:15;21.30;;;9.35;;
32746;SDS011;19118;50.860;13.662;2022-11-15T19:32:15;16.67;;;7.10;;
32746;SDS011;19118;50.860;13.662;2022-11-15T19:37:16;16.30;;;7.40;;
32746;SDS011;19118;50.860;13.662;2022-11-15T19:42:16;10.38;;;5.72;;
32746;SDS011;19118;50.860;13.662;2022-11-15T19:47:17;17.55;;;7.25;;
32746;SDS011;19118;50.860;13.662;2022-11-15T19:52:17;15.63;;;7.45;;
32746;SDS011;19118;50.860;13.662;2022-11-15T19:57:19;12.02;;;5.53;;
32746;SDS011;19118;50.860;13.662;2022-11-15T20:02:20;13.27;;;6.72;;
32746;SDS011;19118;50.860;13.662;2022-11-15T20:07:21;11.25;;;5.72;;
32746;SDS011;19118;50.860;13.662;2022-11-15T20:12:21;8.43;;;4.60;;
32746;SDS011;19118;50.860;13.662;2022-11-15T20:17:21;8.88;;;4.40;;
32746;SDS011;19118;50.860;13.662;2022-11-15T20:22:23;10.45;;;5.88;;
32746;SDS011;19118;50.860;13.662;2022-11-15T20:27:24;15.07;;;7.85;;
32746;SDS011;19118;50.860;13.662;2022-11-15T20:32:25;17.48;;;6.90;;
32746;SDS011;19118;50.860;13.662;2022-11-15T20:37:26;17.45;;;9.52;;
32746;SDS011;19118;50.860;13.662;2022-11-15T20:42:27;17.92;;;8.98;;
32746;SDS011;19118;50.860;13.662;2022-11-15T20:47:28;23.77;;;10.90;;
32746;SDS011;19118;50.860;13.662;2022-11-15T20:52:30;22.33;;;10.10;;
32746;SDS011;19118;50.860;13.662;2022-11-15T20:57:31;31.58;;;12.40;;
32746;SDS011;19118;50.860;13.662;2022-11-15T21:02:31;22.67;;;10.52;;
32746;SDS011;19118;50.860;13.662;2022-11-15T21:07:32;20.98;;;9.55;;
32746;SDS011;19118;50.860;13.662;2022-11-15T21:12:32;20.75;;;10.40;;
32746;SDS011;19118;50.860;13.662;2022-11-15T21:17:33;13.57;;;6.90;;
32746;SDS011;19118;50.860;13.662;2022-11-15T21:22:33;18.20;;;9.10;;
32746;SDS011;19118;50.860;13.662;2022-11-15T21:27:34;19.27;;;9.48;;
32746;SDS011;19118;50.860;13.662;2022-11-15T21:32:34;16.40;;;8.82;;
32746;SDS011;19118;50.860;13.662;2022-11-15T21:37:36;19.27;;;10.25;;
32746;SDS011;19118;50.860;13.662;2022-11-15T21:42:36;26.20;;;12.63;;
32746;SDS011;19118;50.860;13.662;2022-11-15T21:47:36;34.50;;;15.60;;
32746;SDS011;19118;50.860;13.662;2022-11-15T21:52:37;32.78;;;13.98;;
32746;SDS011;19118;50.860;13.662;2022-11-15T21:57:37;37.92;;;14.13;;
32746;SDS011;19118;50.860;13.662;2022-11-15T22:02:38;30.33;;;14.43;;
32746;SDS011;19118;50.860;13.662;2022-11-15T22:07:38;26.02;;;12.88;;
32746;SDS011;19118;50.860;13.662;2022-11-15T22:12:38;24.83;;;10.07;;
32746;SDS011;19118;50.860;13.662;2022-11-15T22:17:39;20.35;;;9.90;;
32746;SDS011;19118;50.860;13.662;2022-11-15T22:22:58;30.48;;;10.60;;
32746;SDS011;19118;50.860;13.662;2022-11-15T22:27:58;22.63;;;7.57;;
32746;SDS011;19118;50.860;13.662;2022-11-15T22:32:59;15.77;;;6.95;;
32746;SDS011;19118;50.860;13.662;2022-11-15T22:37:59;13.60;;;7.85;;
32746;SDS011;19118;50.860;13.662;2022-11-15T22:43:00;17.02;;;7.68;;
32746;SDS011;19118;50.860;13.662;2022-11-15T22:48:01;20.00;;;9.15;;
32746;SDS011;19118;50.860;13.662;2022-11-15T22:53:01;34.25;;;11.68;;
32746;SDS011;19118;50.860;13.662;2022-11-15T22:58:01;22.20;;;10.32;;
32746;SDS011;19118;50.860;13.662;2022-11-15T23:03:02;24.30;;;11.05;;
32746;SDS011;19118;50.860;13.662;2022-11-15T23:08:03;21.00;;;10.65;;
32746;SDS011;19118;50.860;13.662;2022-11-15T23:13:04;20.92;;;10.50;;
32746;SDS011;19118;50.860;13.662;2022-11-15T23:18:17;25.08;;;10.57;;
32746;SDS011;19118;50.860;13.662;2022-11-15T23:23:18;24.08;;;10.77;;
32746;SDS011;19118;50.860;13.662;2022-11-15T23:28:18;27.80;;;10.88;;
32746;SDS011;19118;50.860;13.662;2022-11-15T23:33:19;25.08;;;10.63;;
32746;SDS011;19118;50.860;13.662;2022-11-15T23:38:38;25.80;;;10.80;;
32746;SDS011;19118;50.860;13.662;2022-11-15T23:43:39;25.05;;;10.77;;
32746;SDS011;19118;50.860;13.662;2022-11-15T23:48:40;26.05;;;11.55;;
32746;SDS011;19118;50.860;13.662;2022-11-15T23:53:41;28.42;;;12.27;;
32746;SDS011;19118;50.860;13.662;2022-11-15T23:58:41;30.63;;;11.10;;
